sensor_id;sensor_type;location;lat;lon;timestamp;P1;durP1;ratioP1;P2;durP2;ratioP2
37203;SDS011;23098;48.054;10.636;2022-07-06T00:01:02;4.22;;;2.10;;
37203;SDS011;23098;48.054;10.636;2022-07-06T00:03:28;3.95;;;2.17;;
37203;SDS011;23098;48.054;10.636;2022-07-06T00:05:53;2.75;;;2.10;;
37203;SDS011;23098;48.054;10.636;2022-07-06T00:08:19;2.40;;;1.73;;
37203;SDS011;23098;48.054;10.636;2022-07-06T00:10:44;3.22;;;2.00;;
37203;SDS011;23098;48.054;10.636;2022-07-06T00:13:10;2.08;;;1.80;;
37203;SDS011;23098;48.054;10.636;2022-07-06T00:15:35;2.00;;;1.85;;
37203;SDS011;23098;48.054;10.636;2022-07-06T00:18:01;4.88;;;1.98;;
37203;SDS011;23098;48.054;10.636;2022-07-06T00:20:26;2.13;;;1.70;;
37203;SDS011;23098;48.054;10.636;2022-07-06T00:22:52;3.20;;;1.88;;
37203;SDS011;23098;48.054;10.636;2022-07-06T00:25:17;3.63;;;1.90;;
37203;SDS011;23098;48.054;10.636;2022-07-06T00:27:43;2.42;;;2.00;;
37203;SDS011;23098;48.054;10.636;2022-07-06T00:30:08;2.22;;;2.00;;
37203;SDS011;23098;48.054;10.636;2022-07-06T00:32:34;2.20;;;2.00;;
37203;SDS011;23098;48.054;10.636;2022-07-06T00:35:00;1.95;;;1.80;;
37203;SDS011;23098;48.054;10.636;2022-07-06T00:37:25;2.95;;;2.20;;
37203;SDS011;23098;48.054;10.636;2022-07-06T00:39:51;2.83;;;2.00;;
37203;SDS011;23098;48.054;10.636;2022-07-06T00:42:16;2.20;;;2.00;;
37203;SDS011;23098;48.054;10.636;2022-07-06T00:44:42;2.75;;;1.90;;
37203;SDS011;23098;48.054;10.636;2022-07-06T00:47:07;2.28;;;1.77;;
37203;SDS011;23098;48.054;10.636;2022-07-06T00:49:33;3.15;;;1.73;;
37203;SDS011;23098;48.054;10.636;2022-07-06T00:52:17;2.03;;;1.75;;
37203;SDS011;23098;48.054;10.636;2022-07-06T00:54:43;3.90;;;2.10;;
37203;SDS011;23098;48.054;10.636;2022-07-06T00:57:10;3.00;;;1.70;;
37203;SDS011;23098;48.054;10.636;2022-07-06T00:59:35;2.03;;;1.80;;
37203;SDS011;23098;48.054;10.636;2022-07-06T01:02:01;2.47;;;1.75;;
37203;SDS011;23098;48.054;10.636;2022-07-06T01:04:27;3.08;;;1.77;;
37203;SDS011;23098;48.054;10.636;2022-07-06T01:06:53;2.72;;;1.70;;
37203;SDS011;23098;48.054;10.636;2022-07-06T01:09:19;3.97;;;2.03;;
37203;SDS011;23098;48.054;10.636;2022-07-06T01:11:44;2.10;;;1.90;;
37203;SDS011;23098;48.054;10.636;2022-07-06T01:14:10;4.43;;;1.85;;
37203;SDS011;23098;48.054;10.636;2022-07-06T01:16:37;4.32;;;1.90;;
37203;SDS011;23098;48.054;10.636;2022-07-06T01:19:03;5.10;;;2.15;;
37203;SDS011;23098;48.054;10.636;2022-07-06T01:21:28;3.80;;;2.03;;
37203;SDS011;23098;48.054;10.636;2022-07-06T01:23:54;2.22;;;2.03;;
37203;SDS011;23098;48.054;10.636;2022-07-06T01:26:20;3.50;;;2.22;;
37203;SDS011;23098;48.054;10.636;2022-07-06T01:28:47;3.92;;;2.20;;
37203;SDS011;23098;48.054;10.636;2022-07-06T01:31:15;2.38;;;2.00;;
37203;SDS011;23098;48.054;10.636;2022-07-06T01:33:46;2.53;;;2.08;;
37203;SDS011;23098;48.054;10.636;2022-07-06T01:36:13;2.20;;;2.00;;
37203;SDS011;23098;48.054;10.636;2022-07-06T01:38:45;3.90;;;2.10;;
37203;SDS011;23098;48.054;10.636;2022-07-06T01:41:12;2.03;;;1.80;;
37203;SDS011;23098;48.054;10.636;2022-07-06T01:43:38;2.40;;;2.20;;
37203;SDS011;23098;48.054;10.636;2022-07-06T01:46:04;2.58;;;2.20;;
37203;SDS011;23098;48.054;10.636;2022-07-06T01:48:30;2.72;;;2.20;;
37203;SDS011;23098;48.054;10.636;2022-07-06T01:50:55;2.30;;;2.10;;
37203;SDS011;23098;48.054;10.636;2022-07-06T01:53:21;2.38;;;2.03;;
37203;SDS011;23098;48.054;10.636;2022-07-06T01:55:46;3.78;;;2.25;;
37203;SDS011;23098;48.054;10.636;2022-07-06T01:58:12;2.22;;;2.03;;
37203;SDS011;23098;48.054;10.636;2022-07-06T02:00:37;7.82;;;2.20;;
37203;SDS011;23098;48.054;10.636;2022-07-06T02:03:03;2.90;;;2.60;;
37203;SDS011;23098;48.054;10.636;2022-07-06T02:05:28;2.40;;;2.20;;
37203;SDS011;23098;48.054;10.636;2022-07-06T02:07:54;3.55;;;2.00;;
37203;SDS011;23098;48.054;10.636;2022-07-06T02:10:19;3.53;;;2.30;;
37203;SDS011;23098;48.054;10.636;2022-07-06T02:12:45;2.90;;;2.28;;
37203;SDS011;23098;48.054;10.636;2022-07-06T02:15:11;2.45;;;2.22;;
37203;SDS011;23098;48.054;10.636;2022-07-06T02:17:37;4.78;;;2.25;;
37203;SDS011;23098;48.054;10.636;2022-07-06T02:20:03;2.40;;;2.20;;
37203;SDS011;23098;48.054;10.636;2022-07-06T02:22:29;3.92;;;2.30;;
37203;SDS011;23098;48.054;10.636;2022-07-06T02:24:55;3.33;;;2.25;;
37203;SDS011;23098;48.054;10.636;2022-07-06T02:27:20;2.90;;;2.13;;
37203;SDS011;23098;48.054;10.636;2022-07-06T02:29:46;2.10;;;1.90;;
37203;SDS011;23098;48.054;10.636;2022-07-06T02:32:11;4.70;;;2.40;;
37203;SDS011;23098;48.054;10.636;2022-07-06T02:34:37;3.08;;;2.17;;
37203;SDS011;23098;48.054;10.636;2022-07-06T02:37:02;4.32;;;2.35;;
37203;SDS011;23098;48.054;10.636;2022-07-06T02:39:28;3.42;;;2.10;;
37203;SDS011;23098;48.054;10.636;2022-07-06T02:41:54;6.85;;;2.10;;
37203;SDS011;23098;48.054;10.636;2022-07-06T02:44:19;2.35;;;2.15;;
37203;SDS011;23098;48.054;10.636;2022-07-06T02:46:45;3.83;;;2.15;;
37203;SDS011;23098;48.054;10.636;2022-07-06T02:49:10;2.45;;;2.25;;
37203;SDS011;23098;48.054;10.636;2022-07-06T02:51:36;2.20;;;2.00;;
37203;SDS011;23098;48.054;10.636;2022-07-06T02:54:01;3.78;;;2.10;;
37203;SDS011;23098;48.054;10.636;2022-07-06T02:56:27;2.55;;;2.35;;
37203;SDS011;23098;48.054;10.636;2022-07-06T02:58:53;2.47;;;2.05;;
37203;SDS011;23098;48.054;10.636;2022-07-06T03:01:18;5.57;;;2.30;;
37203;SDS011;23098;48.054;10.636;2022-07-06T03:03:44;2.40;;;2.20;;
37203;SDS011;23098;48.054;10.636;2022-07-06T03:06:09;4.05;;;2.20;;
37203;SDS011;23098;48.054;10.636;2022-07-06T03:08:35;2.92;;;2.40;;
37203;SDS011;23098;48.054;10.636;2022-07-06T03:11:00;2.85;;;2.33;;
37203;SDS011;23098;48.054;10.636;2022-07-06T03:13:27;4.18;;;2.35;;
37203;SDS011;23098;48.054;10.636;2022-07-06T03:15:53;2.58;;;2.35;;
37203;SDS011;23098;48.054;10.636;2022-07-06T03:18:19;4.72;;;2.60;;
37203;SDS011;23098;48.054;10.636;2022-07-06T03:20:44;2.55;;;2.35;;
37203;SDS011;23098;48.054;10.636;2022-07-06T03:23:10;2.83;;;2.50;;
37203;SDS011;23098;48.054;10.636;2022-07-06T03:25:35;5.43;;;2.30;;
37203;SDS011;23098;48.054;10.636;2022-07-06T03:28:01;2.80;;;2.60;;
37203;SDS011;23098;48.054;10.636;2022-07-06T03:30:26;2.67;;;2.47;;
37203;SDS011;23098;48.054;10.636;2022-07-06T03:32:52;2.70;;;2.45;;
37203;SDS011;23098;48.054;10.636;2022-07-06T03:35:18;2.75;;;2.55;;
37203;SDS011;23098;48.054;10.636;2022-07-06T03:37:43;3.00;;;2.60;;
37203;SDS011;23098;48.054;10.636;2022-07-06T03:40:09;3.28;;;2.50;;
37203;SDS011;23098;48.054;10.636;2022-07-06T03:42:35;3.15;;;2.85;;
37203;SDS011;23098;48.054;10.636;2022-07-06T03:45:02;3.78;;;2.78;;
37203;SDS011;23098;48.054;10.636;2022-07-06T03:47:28;3.58;;;2.70;;
37203;SDS011;23098;48.054;10.636;2022-07-06T03:49:53;3.35;;;2.80;;
37203;SDS011;23098;48.054;10.636;2022-07-06T03:52:19;5.82;;;2.85;;
37203;SDS011;23098;48.054;10.636;2022-07-06T03:54:44;4.30;;;2.88;;
37203;SDS011;23098;48.054;10.636;2022-07-06T03:57:10;4.57;;;2.90;;
37203;SDS011;23098;48.054;10.636;2022-07-06T03:59:38;2.80;;;2.60;;
37203;SDS011;23098;48.054;10.636;2022-07-06T04:02:04;3.53;;;2.60;;
37203;SDS011;23098;48.054;10.636;2022-07-06T04:04:29;6.63;;;2.80;;
37203;SDS011;23098;48.054;10.636;2022-07-06T04:06:55;2.78;;;2.50;;
37203;SDS011;23098;48.054;10.636;2022-07-06T04:09:20;2.80;;;2.60;;
37203;SDS011;23098;48.054;10.636;2022-07-06T04:11:46;3.20;;;2.90;;
37203;SDS011;23098;48.054;10.636;2022-07-06T04:14:12;6.20;;;2.78;;
37203;SDS011;23098;48.054;10.636;2022-07-06T04:16:37;3.28;;;2.55;;
37203;SDS011;23098;48.054;10.636;2022-07-06T04:19:03;7.45;;;2.90;;
37203;SDS011;23098;48.054;10.636;2022-07-06T04:21:28;4.28;;;2.65;;
37203;SDS011;23098;48.054;10.636;2022-07-06T04:23:54;6.60;;;2.70;;
37203;SDS011;23098;48.054;10.636;2022-07-06T04:26:20;4.85;;;3.28;;
37203;SDS011;23098;48.054;10.636;2022-07-06T04:28:45;8.18;;;2.78;;
37203;SDS011;23098;48.054;10.636;2022-07-06T04:31:11;6.05;;;2.60;;
37203;SDS011;23098;48.054;10.636;2022-07-06T04:33:40;8.35;;;2.35;;
37203;SDS011;23098;48.054;10.636;2022-07-06T04:36:07;7.75;;;2.42;;
37203;SDS011;23098;48.054;10.636;2022-07-06T04:38:32;3.35;;;2.17;;
37203;SDS011;23098;48.054;10.636;2022-07-06T04:40:58;5.63;;;2.10;;
37203;SDS011;23098;48.054;10.636;2022-07-06T04:43:23;2.28;;;2.00;;
37203;SDS011;23098;48.054;10.636;2022-07-06T04:45:49;2.95;;;1.80;;
37203;SDS011;23098;48.054;10.636;2022-07-06T04:48:14;3.92;;;2.20;;
37203;SDS011;23098;48.054;10.636;2022-07-06T04:50:40;1.83;;;1.65;;
37203;SDS011;23098;48.054;10.636;2022-07-06T04:53:05;4.53;;;1.52;;
37203;SDS011;23098;48.054;10.636;2022-07-06T04:55:31;3.60;;;1.75;;
37203;SDS011;23098;48.054;10.636;2022-07-06T04:57:57;1.58;;;1.40;;
37203;SDS011;23098;48.054;10.636;2022-07-06T05:00:22;2.75;;;1.60;;
37203;SDS011;23098;48.054;10.636;2022-07-06T05:02:48;3.03;;;1.60;;
37203;SDS011;23098;48.054;10.636;2022-07-06T05:05:13;2.42;;;1.58;;
37203;SDS011;23098;48.054;10.636;2022-07-06T05:07:39;2.00;;;1.42;;
37203;SDS011;23098;48.054;10.636;2022-07-06T05:10:13;2.65;;;1.45;;
37203;SDS011;23098;48.054;10.636;2022-07-06T05:12:39;2.90;;;1.38;;
37203;SDS011;23098;48.054;10.636;2022-07-06T05:15:05;3.95;;;1.60;;
37203;SDS011;23098;48.054;10.636;2022-07-06T05:17:32;4.63;;;1.80;;
37203;SDS011;23098;48.054;10.636;2022-07-06T05:19:57;6.90;;;1.88;;
37203;SDS011;23098;48.054;10.636;2022-07-06T05:22:23;1.63;;;1.27;;
37203;SDS011;23098;48.054;10.636;2022-07-06T05:24:50;2.65;;;1.40;;
37203;SDS011;23098;48.054;10.636;2022-07-06T05:27:17;6.88;;;1.55;;
37203;SDS011;23098;48.054;10.636;2022-07-06T05:29:43;9.18;;;1.98;;
37203;SDS011;23098;48.054;10.636;2022-07-06T05:32:08;8.85;;;1.80;;
37203;SDS011;23098;48.054;10.636;2022-07-06T05:34:34;10.27;;;1.60;;
37203;SDS011;23098;48.054;10.636;2022-07-06T05:37:01;15.77;;;1.70;;
37203;SDS011;23098;48.054;10.636;2022-07-06T05:39:27;8.48;;;1.70;;
37203;SDS011;23098;48.054;10.636;2022-07-06T05:41:52;4.70;;;1.88;;
37203;SDS011;23098;48.054;10.636;2022-07-06T05:44:18;4.45;;;1.92;;
37203;SDS011;23098;48.054;10.636;2022-07-06T05:46:43;9.02;;;1.83;;
37203;SDS011;23098;48.054;10.636;2022-07-06T05:49:09;4.00;;;1.90;;
37203;SDS011;23098;48.054;10.636;2022-07-06T05:51:53;4.70;;;1.80;;
37203;SDS011;23098;48.054;10.636;2022-07-06T05:54:18;3.75;;;2.10;;
37203;SDS011;23098;48.054;10.636;2022-07-06T05:56:44;4.53;;;1.83;;
37203;SDS011;23098;48.054;10.636;2022-07-06T05:59:09;4.63;;;1.95;;
37203;SDS011;23098;48.054;10.636;2022-07-06T06:01:35;4.95;;;1.90;;
37203;SDS011;23098;48.054;10.636;2022-07-06T06:04:01;2.38;;;1.80;;
37203;SDS011;23098;48.054;10.636;2022-07-06T06:06:26;2.42;;;1.92;;
37203;SDS011;23098;48.054;10.636;2022-07-06T06:08:52;5.35;;;1.92;;
37203;SDS011;23098;48.054;10.636;2022-07-06T06:11:17;3.90;;;2.10;;
37203;SDS011;23098;48.054;10.636;2022-07-06T06:13:43;9.85;;;2.17;;
37203;SDS011;23098;48.054;10.636;2022-07-06T06:16:10;4.93;;;1.80;;
37203;SDS011;23098;48.054;10.636;2022-07-06T06:18:37;3.17;;;1.58;;
37203;SDS011;23098;48.054;10.636;2022-07-06T06:21:02;4.13;;;1.83;;
37203;SDS011;23098;48.054;10.636;2022-07-06T06:23:29;3.75;;;1.67;;
37203;SDS011;23098;48.054;10.636;2022-07-06T06:25:54;2.72;;;1.77;;
37203;SDS011;23098;48.054;10.636;2022-07-06T06:28:20;5.63;;;2.10;;
37203;SDS011;23098;48.054;10.636;2022-07-06T06:30:45;3.75;;;1.88;;
37203;SDS011;23098;48.054;10.636;2022-07-06T06:33:12;2.38;;;1.75;;
37203;SDS011;23098;48.054;10.636;2022-07-06T06:35:45;2.17;;;1.70;;
37203;SDS011;23098;48.054;10.636;2022-07-06T06:38:13;4.00;;;1.75;;
37203;SDS011;23098;48.054;10.636;2022-07-06T06:40:42;2.80;;;1.75;;
37203;SDS011;23098;48.054;10.636;2022-07-06T06:43:36;2.58;;;1.58;;
37203;SDS011;23098;48.054;10.636;2022-07-06T06:46:01;3.17;;;1.85;;
37203;SDS011;23098;48.054;10.636;2022-07-06T06:48:27;2.03;;;1.90;;
37203;SDS011;23098;48.054;10.636;2022-07-06T06:50:52;3.67;;;2.03;;
37203;SDS011;23098;48.054;10.636;2022-07-06T06:53:18;3.03;;;2.03;;
37203;SDS011;23098;48.054;10.636;2022-07-06T06:55:43;3.50;;;2.08;;
37203;SDS011;23098;48.054;10.636;2022-07-06T06:58:09;4.35;;;2.03;;
37203;SDS011;23098;48.054;10.636;2022-07-06T07:00:35;2.67;;;1.75;;
37203;SDS011;23098;48.054;10.636;2022-07-06T07:03:00;7.65;;;1.90;;
37203;SDS011;23098;48.054;10.636;2022-07-06T07:05:26;2.20;;;1.70;;
37203;SDS011;23098;48.054;10.636;2022-07-06T07:07:51;2.80;;;1.83;;
37203;SDS011;23098;48.054;10.636;2022-07-06T07:10:17;2.47;;;2.00;;
37203;SDS011;23098;48.054;10.636;2022-07-06T07:12:43;2.67;;;1.73;;
37203;SDS011;23098;48.054;10.636;2022-07-06T07:15:12;1.92;;;1.67;;
37203;SDS011;23098;48.054;10.636;2022-07-06T07:17:39;3.47;;;1.70;;
37203;SDS011;23098;48.054;10.636;2022-07-06T07:20:05;3.45;;;1.80;;
37203;SDS011;23098;48.054;10.636;2022-07-06T07:22:31;2.88;;;1.88;;
37203;SDS011;23098;48.054;10.636;2022-07-06T07:24:57;1.95;;;1.70;;
37203;SDS011;23098;48.054;10.636;2022-07-06T07:27:23;2.72;;;1.90;;
37203;SDS011;23098;48.054;10.636;2022-07-06T07:29:49;2.20;;;1.70;;
37203;SDS011;23098;48.054;10.636;2022-07-06T07:32:15;5.07;;;1.98;;
37203;SDS011;23098;48.054;10.636;2022-07-06T07:34:40;3.80;;;1.85;;
37203;SDS011;23098;48.054;10.636;2022-07-06T07:37:06;4.45;;;1.95;;
37203;SDS011;23098;48.054;10.636;2022-07-06T07:39:32;2.03;;;1.83;;
37203;SDS011;23098;48.054;10.636;2022-07-06T07:41:57;3.42;;;1.85;;
37203;SDS011;23098;48.054;10.636;2022-07-06T07:44:23;3.53;;;2.00;;
37203;SDS011;23098;48.054;10.636;2022-07-06T07:46:49;5.10;;;2.08;;
37203;SDS011;23098;48.054;10.636;2022-07-06T07:49:17;6.75;;;2.47;;
37203;SDS011;23098;48.054;10.636;2022-07-06T07:51:43;4.80;;;1.95;;
37203;SDS011;23098;48.054;10.636;2022-07-06T07:54:11;4.53;;;2.25;;
37203;SDS011;23098;48.054;10.636;2022-07-06T07:56:37;4.28;;;2.10;;
37203;SDS011;23098;48.054;10.636;2022-07-06T07:59:05;5.82;;;2.65;;
37203;SDS011;23098;48.054;10.636;2022-07-06T08:01:31;4.53;;;2.47;;
37203;SDS011;23098;48.054;10.636;2022-07-06T08:03:57;3.45;;;2.80;;
37203;SDS011;23098;48.054;10.636;2022-07-06T08:06:23;4.10;;;2.42;;
37203;SDS011;23098;48.054;10.636;2022-07-06T08:08:48;3.28;;;2.40;;
37203;SDS011;23098;48.054;10.636;2022-07-06T08:11:14;3.40;;;2.58;;
37203;SDS011;23098;48.054;10.636;2022-07-06T08:13:39;4.05;;;2.30;;
37203;SDS011;23098;48.054;10.636;2022-07-06T08:16:05;4.03;;;2.50;;
37203;SDS011;23098;48.054;10.636;2022-07-06T08:18:31;3.10;;;2.58;;
37203;SDS011;23098;48.054;10.636;2022-07-06T08:20:56;3.78;;;2.60;;
37203;SDS011;23098;48.054;10.636;2022-07-06T08:23:22;5.00;;;2.20;;
37203;SDS011;23098;48.054;10.636;2022-07-06T08:25:48;4.93;;;2.38;;
37203;SDS011;23098;48.054;10.636;2022-07-06T08:28:14;2.72;;;2.40;;
37203;SDS011;23098;48.054;10.636;2022-07-06T08:30:39;3.95;;;2.35;;
37203;SDS011;23098;48.054;10.636;2022-07-06T08:33:05;3.50;;;2.55;;
37203;SDS011;23098;48.054;10.636;2022-07-06T08:35:30;4.97;;;2.22;;
37203;SDS011;23098;48.054;10.636;2022-07-06T08:37:56;6.07;;;2.20;;
37203;SDS011;23098;48.054;10.636;2022-07-06T08:40:21;3.97;;;2.20;;
37203;SDS011;23098;48.054;10.636;2022-07-06T08:42:48;2.65;;;2.35;;
37203;SDS011;23098;48.054;10.636;2022-07-06T08:45:18;4.22;;;2.30;;
37203;SDS011;23098;48.054;10.636;2022-07-06T08:47:44;4.47;;;2.38;;
37203;SDS011;23098;48.054;10.636;2022-07-06T08:50:13;6.25;;;2.63;;
37203;SDS011;23098;48.054;10.636;2022-07-06T08:52:39;5.57;;;2.35;;
37203;SDS011;23098;48.054;10.636;2022-07-06T08:55:05;3.40;;;2.30;;
37203;SDS011;23098;48.054;10.636;2022-07-06T08:57:33;4.85;;;2.08;;
37203;SDS011;23098;48.054;10.636;2022-07-06T08:59:58;2.53;;;1.77;;
37203;SDS011;23098;48.054;10.636;2022-07-06T09:02:24;2.88;;;2.00;;
37203;SDS011;23098;48.054;10.636;2022-07-06T09:04:54;8.32;;;2.40;;
37203;SDS011;23098;48.054;10.636;2022-07-06T09:07:22;3.47;;;2.28;;
37203;SDS011;23098;48.054;10.636;2022-07-06T09:09:49;3.65;;;2.00;;
37203;SDS011;23098;48.054;10.636;2022-07-06T09:12:16;3.65;;;2.20;;
37203;SDS011;23098;48.054;10.636;2022-07-06T09:14:42;2.42;;;1.83;;
37203;SDS011;23098;48.054;10.636;2022-07-06T09:17:07;2.25;;;1.83;;
37203;SDS011;23098;48.054;10.636;2022-07-06T09:19:33;4.47;;;1.80;;
37203;SDS011;23098;48.054;10.636;2022-07-06T09:22:00;3.40;;;2.03;;
37203;SDS011;23098;48.054;10.636;2022-07-06T09:24:26;3.75;;;2.05;;
37203;SDS011;23098;48.054;10.636;2022-07-06T09:26:54;2.85;;;2.10;;
37203;SDS011;23098;48.054;10.636;2022-07-06T09:29:28;4.50;;;2.13;;
37203;SDS011;23098;48.054;10.636;2022-07-06T09:32:00;3.55;;;2.10;;
37203;SDS011;23098;48.054;10.636;2022-07-06T09:34:41;3.17;;;2.05;;
37203;SDS011;23098;48.054;10.636;2022-07-06T09:37:07;5.18;;;2.20;;
37203;SDS011;23098;48.054;10.636;2022-07-06T09:39:33;3.30;;;2.20;;
37203;SDS011;23098;48.054;10.636;2022-07-06T09:41:59;3.58;;;2.20;;
37203;SDS011;23098;48.054;10.636;2022-07-06T09:46:56;2.08;;;1.80;;
37203;SDS011;23098;48.054;10.636;2022-07-06T09:49:26;2.80;;;2.10;;
37203;SDS011;23098;48.054;10.636;2022-07-06T09:51:52;3.20;;;2.10;;
37203;SDS011;23098;48.054;10.636;2022-07-06T09:54:21;4.82;;;2.30;;
37203;SDS011;23098;48.054;10.636;2022-07-06T09:56:47;4.22;;;2.17;;
37203;SDS011;23098;48.054;10.636;2022-07-06T09:59:16;2.35;;;2.15;;
37203;SDS011;23098;48.054;10.636;2022-07-06T10:01:46;3.33;;;2.03;;
37203;SDS011;23098;48.054;10.636;2022-07-06T10:04:15;4.45;;;2.10;;
37203;SDS011;23098;48.054;10.636;2022-07-06T10:06:43;3.03;;;2.10;;
37203;SDS011;23098;48.054;10.636;2022-07-06T10:09:09;2.50;;;1.85;;
37203;SDS011;23098;48.054;10.636;2022-07-06T10:11:40;4.30;;;2.20;;
37203;SDS011;23098;48.054;10.636;2022-07-06T10:16:35;7.28;;;2.38;;
37203;SDS011;23098;48.054;10.636;2022-07-06T10:19:03;2.28;;;1.67;;
37203;SDS011;23098;48.054;10.636;2022-07-06T10:21:31;2.92;;;2.25;;
37203;SDS011;23098;48.054;10.636;2022-07-06T10:23:58;2.85;;;1.73;;
37203;SDS011;23098;48.054;10.636;2022-07-06T10:26:25;2.20;;;1.70;;
37203;SDS011;23098;48.054;10.636;2022-07-06T10:28:52;3.65;;;2.08;;
37203;SDS011;23098;48.054;10.636;2022-07-06T10:31:28;2.40;;;1.77;;
37203;SDS011;23098;48.054;10.636;2022-07-06T10:34:02;2.78;;;2.00;;
37203;SDS011;23098;48.054;10.636;2022-07-06T10:36:30;3.58;;;2.10;;
37203;SDS011;23098;48.054;10.636;2022-07-06T10:38:56;2.58;;;2.00;;
37203;SDS011;23098;48.054;10.636;2022-07-06T10:41:32;4.80;;;2.08;;
37203;SDS011;23098;48.054;10.636;2022-07-06T10:46:53;4.15;;;2.15;;
37203;SDS011;23098;48.054;10.636;2022-07-06T10:49:21;3.92;;;1.90;;
37203;SDS011;23098;48.054;10.636;2022-07-06T10:51:48;3.08;;;1.90;;
37203;SDS011;23098;48.054;10.636;2022-07-06T10:54:15;4.65;;;2.30;;
37203;SDS011;23098;48.054;10.636;2022-07-06T10:56:42;7.00;;;2.00;;
37203;SDS011;23098;48.054;10.636;2022-07-06T10:59:23;5.70;;;1.90;;
37203;SDS011;23098;48.054;10.636;2022-07-06T11:04:43;4.38;;;2.08;;
37203;SDS011;23098;48.054;10.636;2022-07-06T11:07:11;2.65;;;1.67;;
37203;SDS011;23098;48.054;10.636;2022-07-06T11:09:38;7.18;;;1.98;;
37203;SDS011;23098;48.054;10.636;2022-07-06T11:12:14;5.40;;;1.92;;
37203;SDS011;23098;48.054;10.636;2022-07-06T11:14:43;3.13;;;1.75;;
37203;SDS011;23098;48.054;10.636;2022-07-06T11:17:09;4.90;;;2.15;;
37203;SDS011;23098;48.054;10.636;2022-07-06T11:19:36;3.95;;;1.90;;
37203;SDS011;23098;48.054;10.636;2022-07-06T11:22:06;3.10;;;1.85;;
37203;SDS011;23098;48.054;10.636;2022-07-06T11:24:34;4.65;;;2.08;;
37203;SDS011;23098;48.054;10.636;2022-07-06T11:27:02;3.15;;;1.88;;
37203;SDS011;23098;48.054;10.636;2022-07-06T11:29:29;4.85;;;1.75;;
37203;SDS011;23098;48.054;10.636;2022-07-06T11:31:56;4.25;;;1.90;;
37203;SDS011;23098;48.054;10.636;2022-07-06T11:34:31;2.63;;;1.90;;
37203;SDS011;23098;48.054;10.636;2022-07-06T11:36:58;3.20;;;1.60;;
37203;SDS011;23098;48.054;10.636;2022-07-06T11:39:29;3.90;;;1.60;;
37203;SDS011;23098;48.054;10.636;2022-07-06T11:41:57;2.05;;;1.50;;
37203;SDS011;23098;48.054;10.636;2022-07-06T11:44:23;3.22;;;1.60;;
37203;SDS011;23098;48.054;10.636;2022-07-06T11:46:49;9.30;;;1.77;;
37203;SDS011;23098;48.054;10.636;2022-07-06T11:49:15;3.33;;;1.70;;
37203;SDS011;23098;48.054;10.636;2022-07-06T11:51:41;5.05;;;1.80;;
37203;SDS011;23098;48.054;10.636;2022-07-06T11:54:11;3.78;;;1.92;;
37203;SDS011;23098;48.054;10.636;2022-07-06T11:56:45;2.67;;;1.70;;
37203;SDS011;23098;48.054;10.636;2022-07-06T11:59:14;5.28;;;1.80;;
37203;SDS011;23098;48.054;10.636;2022-07-06T12:01:41;4.00;;;1.90;;
37203;SDS011;23098;48.054;10.636;2022-07-06T12:04:09;3.10;;;1.70;;
37203;SDS011;23098;48.054;10.636;2022-07-06T12:06:35;4.25;;;1.80;;
37203;SDS011;23098;48.054;10.636;2022-07-06T12:09:01;7.32;;;1.90;;
37203;SDS011;23098;48.054;10.636;2022-07-06T12:11:32;3.42;;;1.90;;
37203;SDS011;23098;48.054;10.636;2022-07-06T12:14:12;3.80;;;1.90;;
37203;SDS011;23098;48.054;10.636;2022-07-06T12:16:39;4.45;;;1.50;;
37203;SDS011;23098;48.054;10.636;2022-07-06T12:19:05;1.83;;;1.48;;
37203;SDS011;23098;48.054;10.636;2022-07-06T12:21:31;3.97;;;1.70;;
37203;SDS011;23098;48.054;10.636;2022-07-06T12:23:58;5.50;;;1.60;;
37203;SDS011;23098;48.054;10.636;2022-07-06T12:26:24;2.60;;;1.50;;
37203;SDS011;23098;48.054;10.636;2022-07-06T12:29:08;3.38;;;1.65;;
37203;SDS011;23098;48.054;10.636;2022-07-06T12:31:36;3.03;;;1.70;;
37203;SDS011;23098;48.054;10.636;2022-07-06T12:34:03;4.70;;;1.58;;
37203;SDS011;23098;48.054;10.636;2022-07-06T12:36:30;2.97;;;1.60;;
37203;SDS011;23098;48.054;10.636;2022-07-06T12:39:09;2.60;;;1.60;;
37203;SDS011;23098;48.054;10.636;2022-07-06T12:41:36;4.32;;;2.00;;
37203;SDS011;23098;48.054;10.636;2022-07-06T12:46:30;8.25;;;2.10;;
37203;SDS011;23098;48.054;10.636;2022-07-06T12:48:58;9.93;;;2.00;;
37203;SDS011;23098;48.054;10.636;2022-07-06T12:51:25;7.65;;;1.95;;
37203;SDS011;23098;48.054;10.636;2022-07-06T12:53:50;4.05;;;1.88;;
37203;SDS011;23098;48.054;10.636;2022-07-06T12:56:16;18.45;;;2.13;;
37203;SDS011;23098;48.054;10.636;2022-07-06T12:58:55;2.75;;;1.50;;
37203;SDS011;23098;48.054;10.636;2022-07-06T13:01:22;5.82;;;1.80;;
37203;SDS011;23098;48.054;10.636;2022-07-06T13:03:47;2.42;;;1.80;;
37203;SDS011;23098;48.054;10.636;2022-07-06T13:06:32;4.13;;;1.85;;
37203;SDS011;23098;48.054;10.636;2022-07-06T13:08:59;3.03;;;1.80;;
37203;SDS011;23098;48.054;10.636;2022-07-06T13:11:25;4.45;;;1.83;;
37203;SDS011;23098;48.054;10.636;2022-07-06T13:13:50;3.45;;;1.70;;
37203;SDS011;23098;48.054;10.636;2022-07-06T13:16:16;2.92;;;2.00;;
37203;SDS011;23098;48.054;10.636;2022-07-06T13:18:42;3.60;;;2.00;;
37203;SDS011;23098;48.054;10.636;2022-07-06T13:21:07;2.60;;;1.58;;
37203;SDS011;23098;48.054;10.636;2022-07-06T13:23:33;2.20;;;1.80;;
37203;SDS011;23098;48.054;10.636;2022-07-06T13:25:59;2.08;;;1.70;;
37203;SDS011;23098;48.054;10.636;2022-07-06T13:28:24;7.93;;;1.60;;
37203;SDS011;23098;48.054;10.636;2022-07-06T13:30:50;3.67;;;1.85;;
37203;SDS011;23098;48.054;10.636;2022-07-06T13:33:15;3.65;;;1.45;;
37203;SDS011;23098;48.054;10.636;2022-07-06T13:35:41;3.90;;;1.80;;
37203;SDS011;23098;48.054;10.636;2022-07-06T13:38:06;4.75;;;1.98;;
37203;SDS011;23098;48.054;10.636;2022-07-06T13:40:33;4.10;;;1.60;;
37203;SDS011;23098;48.054;10.636;2022-07-06T13:43:00;2.90;;;1.58;;
37203;SDS011;23098;48.054;10.636;2022-07-06T13:45:26;2.22;;;1.65;;
37203;SDS011;23098;48.054;10.636;2022-07-06T13:47:53;3.50;;;1.77;;
37203;SDS011;23098;48.054;10.636;2022-07-06T13:50:19;2.78;;;1.50;;
37203;SDS011;23098;48.054;10.636;2022-07-06T13:52:45;4.00;;;1.52;;
37203;SDS011;23098;48.054;10.636;2022-07-06T13:55:10;2.33;;;1.70;;
37203;SDS011;23098;48.054;10.636;2022-07-06T13:57:36;2.42;;;1.60;;
37203;SDS011;23098;48.054;10.636;2022-07-06T14:00:03;3.15;;;1.77;;
37203;SDS011;23098;48.054;10.636;2022-07-06T14:02:29;5.57;;;1.80;;
37203;SDS011;23098;48.054;10.636;2022-07-06T14:04:54;3.85;;;1.70;;
37203;SDS011;23098;48.054;10.636;2022-07-06T14:07:20;2.15;;;1.60;;
37203;SDS011;23098;48.054;10.636;2022-07-06T14:09:45;3.65;;;1.50;;
37203;SDS011;23098;48.054;10.636;2022-07-06T14:12:16;5.50;;;1.88;;
37203;SDS011;23098;48.054;10.636;2022-07-06T14:14:42;4.50;;;1.60;;
37203;SDS011;23098;48.054;10.636;2022-07-06T14:17:07;4.80;;;1.63;;
37203;SDS011;23098;48.054;10.636;2022-07-06T14:19:33;3.97;;;1.75;;
37203;SDS011;23098;48.054;10.636;2022-07-06T14:21:59;2.97;;;1.60;;
37203;SDS011;23098;48.054;10.636;2022-07-06T14:24:24;4.47;;;1.77;;
37203;SDS011;23098;48.054;10.636;2022-07-06T14:26:50;9.55;;;1.73;;
37203;SDS011;23098;48.054;10.636;2022-07-06T14:29:15;1.95;;;1.67;;
37203;SDS011;23098;48.054;10.636;2022-07-06T14:31:41;9.23;;;1.80;;
37203;SDS011;23098;48.054;10.636;2022-07-06T14:34:06;4.28;;;1.77;;
37203;SDS011;23098;48.054;10.636;2022-07-06T14:36:32;4.50;;;1.50;;
37203;SDS011;23098;48.054;10.636;2022-07-06T14:38:59;5.28;;;1.40;;
37203;SDS011;23098;48.054;10.636;2022-07-06T14:41:25;6.63;;;1.77;;
37203;SDS011;23098;48.054;10.636;2022-07-06T14:43:50;2.50;;;1.60;;